Time;durP1;ratioP1;P1;durP2;ratioP2;P2;SDS_P1;SDS_P2;PMS_P1;PMS_P2;Temp;Humidity;BMP_temperature;BMP_pressure;BME280_temperature;BME280_humidity;BME280_pressure;Samples;Min_cycle;Max_cycle;Signal;HPM_P1;HPM_P2
2023/04/19 00:02:24;;;;;;;21.17;18.93;;;;;;;10.46;72.56;102163.50;5096740;28;20170;-70
2023/04/19 00:04:51;;;;;;;24.53;18.80;;;;;;;10.43;73.17;102156.47;5096036;28;20220;-69
2023/04/19 00:07:19;;;;;;;33.63;19.70;;;;;;;10.43;73.05;102156.47;5096052;28;20214;-69
2023/04/19 00:09:45;;;;;;;19.73;17.63;;;;;;;10.48;72.77;102159.78;5096285;28;20179;-70
2023/04/19 00:12:12;;;;;;;19.90;17.83;;;;;;;10.47;73.08;102155.41;5096515;28;20178;-70
2023/04/19 00:14:38;;;;;;;22.73;19.57;;;;;;;10.60;72.18;102161.00;5096159;28;20210;-70
2023/04/19 00:17:05;;;;;;;27.80;19.67;;;;;;;10.51;72.47;102151.63;5096296;28;20293;-69
2023/04/19 00:19:31;;;;;;;21.47;19.00;;;;;;;10.49;72.66;102161.56;5095769;28;20212;-69
2023/04/19 00:21:58;;;;;;;22.17;19.07;;;;;;;10.46;72.81;102158.13;5095991;28;20186;-70
2023/04/19 00:24:24;;;;;;;23.73;18.90;;;;;;;10.54;72.09;102151.47;5096111;28;20288;-70
2023/04/19 00:26:51;;;;;;;28.27;18.97;;;;;;;10.56;72.33;102160.31;5095593;28;20190;-70
2023/04/19 00:29:17;;;;;;;20.00;17.90;;;;;;;10.51;72.14;102162.34;5095923;28;20205;-70
2023/04/19 00:31:44;;;;;;;19.73;17.70;;;;;;;10.44;72.30;102158.22;5095559;28;20189;-70
2023/04/19 00:34:10;;;;;;;23.53;18.60;;;;;;;10.42;72.48;102152.06;5095722;28;20360;-69
2023/04/19 00:36:36;;;;;;;26.83;18.30;;;;;;;10.35;72.71;102145.28;5095955;28;20249;-69
2023/04/19 00:39:05;;;;;;;24.87;19.07;;;;;;;10.45;72.67;102156.41;5077264;28;20186;-69
2023/04/19 00:41:31;;;;;;;22.87;19.13;;;;;;;10.30;73.06;102145.50;5077108;28;20648;-69
2023/04/19 00:43:58;;;;;;;19.50;17.43;;;;;;;10.36;72.93;102152.34;5077152;28;20190;-70
2023/04/19 00:46:25;;;;;;;19.00;17.23;;;;;;;10.30;72.89;102141.97;5077065;28;20288;-70
2023/04/19 00:48:52;;;;;;;19.93;17.53;;;;;;;10.25;73.13;102146.59;5095235;28;20190;-70
2023/04/19 00:51:19;;;;;;;22.23;17.63;;;;;;;10.22;73.73;102147.63;5095231;28;20182;-70
2023/04/19 00:53:45;;;;;;;20.07;17.93;;;;;;;10.17;73.66;102145.16;5095943;28;20181;-70
2023/04/19 00:56:13;;;;;;;22.73;16.83;;;;;;;10.15;73.73;102136.34;5094969;28;20309;-70
2023/04/19 00:58:40;;;;;;;20.10;17.20;;;;;;;10.16;73.65;102139.91;5095038;28;20221;-70
2023/04/19 01:01:07;;;;;;;18.87;16.83;;;;;;;10.13;73.82;102134.69;5076859;28;20194;-70
2023/04/19 01:03:35;;;;;;;22.47;18.17;;;;;;;10.13;74.04;102146.25;5095386;28;20178;-70
2023/04/19 01:06:02;;;;;;;32.63;16.90;;;;;;;10.15;73.97;102146.16;5094805;28;20201;-70
2023/04/19 01:08:28;;;;;;;22.40;17.70;;;;;;;10.16;73.58;102147.94;5094844;28;20213;-70
2023/04/19 01:10:54;;;;;;;19.53;17.47;;;;;;;10.13;73.93;102132.88;5095074;28;20607;-70
2023/04/19 01:13:21;;;;;;;18.90;16.93;;;;;;;10.11;73.98;102134.75;5076658;28;20293;-70
2023/04/19 01:15:47;;;;;;;18.80;16.80;;;;;;;10.10;74.11;102142.84;5076557;28;20270;-69
2023/04/19 01:18:14;;;;;;;22.57;18.27;;;;;;;10.09;74.21;102138.44;5094966;28;20565;-69
2023/04/19 01:20:41;;;;;;;20.13;17.80;;;;;;;10.14;73.90;102133.75;5076416;28;20656;-69
2023/04/19 01:23:10;;;;;;;19.60;17.23;;;;;;;10.17;74.03;102130.91;5076617;28;20281;-69
2023/04/19 01:25:37;;;;;;;22.30;17.27;;;;;;;10.09;74.44;102131.28;5094672;28;20228;-69
2023/04/19 01:28:04;;;;;;;19.73;17.23;;;;;;;10.13;74.40;102124.84;5076365;28;20610;-70
2023/04/19 01:30:31;;;;;;;18.93;16.93;;;;;;;10.10;74.34;102129.47;5094862;28;20607;-70
2023/04/19 01:32:58;;;;;;;22.67;17.37;;;;;;;10.06;74.90;102123.41;5076530;28;20205;-70
2023/04/19 01:35:24;;;;;;;17.70;15.83;;;;;;;10.02;75.11;102119.97;5076375;28;20216;-70
2023/04/19 01:37:54;;;;;;;17.93;16.07;;;;;;;10.04;75.02;102122.59;5094524;28;20655;-70
2023/04/19 01:40:24;;;;;;;20.03;17.10;;;;;;;10.12;74.65;102124.91;5076133;28;20242;-70
2023/04/19 01:42:51;;;;;;;18.77;16.83;;;;;;;10.18;74.08;102125.50;5076088;28;20605;-70
2023/04/19 01:45:17;;;;;;;23.67;16.10;;;;;;;10.19;74.35;102123.69;5075953;28;20266;-70
2023/04/19 01:47:44;;;;;;;27.10;16.00;;;;;;;10.19;73.92;102121.00;5094427;28;20182;-70
2023/04/19 01:50:10;;;;;;;22.43;16.47;;;;;;;10.19;74.24;102115.66;5075864;28;20216;-70
2023/04/19 01:52:37;;;;;;;18.33;16.50;;;;;;;10.21;74.66;102113.75;5094025;28;20182;-70
2023/04/19 01:55:04;;;;;;;22.33;16.03;;;;;;;10.20;74.14;102110.22;5075715;28;20775;-70
2023/04/19 01:57:30;;;;;;;16.03;14.53;;;;;;;10.14;74.54;102115.88;5092952;28;20213;-70
2023/04/19 01:59:57;;;;;;;21.37;15.73;;;;;;;10.19;74.40;102116.50;5075794;28;20310;-70
2023/04/19 02:02:23;;;;;;;18.00;16.10;;;;;;;10.27;74.54;102115.28;5075718;28;20190;-70
2023/04/19 02:04:50;;;;;;;16.60;15.00;;;;;;;10.28;73.91;102115.25;5094028;28;20209;-69
2023/04/19 02:07:16;;;;;;;20.13;16.17;;;;;;;10.27;74.07;102115.28;5075687;28;20221;-69
2023/04/19 02:09:43;;;;;;;17.83;15.93;;;;;;;10.28;73.91;102111.66;5076028;28;20178;-70
2023/04/19 02:12:10;;;;;;;15.90;14.43;;;;;;;10.26;73.51;102117.09;5076081;28;20193;-70
2023/04/19 02:14:37;;;;;;;16.03;14.43;;;;;;;10.29;73.74;102110.75;5075018;28;20583;-69
2023/04/19 02:17:03;;;;;;;15.43;14.03;;;;;;;10.31;73.21;102112.41;5094141;28;20244;-70
2023/04/19 02:19:30;;;;;;;16.10;14.63;;;;;;;10.26;73.44;102118.91;5075692;28;20219;-70
2023/04/19 02:21:56;;;;;;;15.53;14.07;;;;;;;10.34;73.48;102116.75;5094367;28;20251;-70
2023/04/19 02:24:24;;;;;;;18.73;15.20;;;;;;;10.38;73.18;102111.16;5093468;28;20244;-70
2023/04/19 02:26:50;;;;;;;16.20;14.50;;;;;;;10.36;72.56;102109.50;5075242;28;20206;-70
2023/04/19 02:29:17;;;;;;;15.43;14.17;;;;;;;10.33;72.97;102117.69;5075647;28;20193;-70
2023/04/19 02:31:45;;;;;;;15.13;13.73;;;;;;;10.29;73.17;102122.31;5093489;28;20186;-70
2023/04/19 02:34:11;;;;;;;15.53;14.07;;;;;;;10.27;73.09;102129.56;5093368;28;20186;-70
2023/04/19 02:36:38;;;;;;;15.17;13.93;;;;;;;10.29;72.74;102116.97;5093337;28;20698;-70
2023/04/19 02:39:04;;;;;;;16.47;14.97;;;;;;;10.26;73.25;102117.09;5093356;28;20216;-70
2023/04/19 02:41:31;;;;;;;16.90;13.70;;;;;;;10.29;72.64;102129.50;5075315;28;20292;-70
2023/04/19 02:44:00;;;;;;;14.03;12.73;;;;;;;10.30;72.71;102125.88;5075220;28;20218;-70
2023/04/19 02:46:26;;;;;;;14.13;12.93;;;;;;;10.24;72.77;102121.66;5075211;28;20230;-70
2023/04/19 02:48:53;;;;;;;14.70;13.30;;;;;;;10.28;72.33;102125.06;5093211;28;20202;-70
2023/04/19 02:51:19;;;;;;;15.33;13.97;;;;;;;10.29;72.53;102126.81;5075178;28;20237;-70
2023/04/19 02:53:46;;;;;;;14.07;12.97;;;;;;;10.27;72.75;102126.88;5093797;28;20178;-70
2023/04/19 02:56:12;;;;;;;14.07;13.00;;;;;;;10.26;72.31;102126.94;5075029;28;20217;-70
2023/04/19 02:58:39;;;;;;;14.63;13.30;;;;;;;10.34;72.29;102123.00;5075390;28;20596;-70
2023/04/19 03:01:05;;;;;;;14.30;12.70;;;;;;;10.26;72.28;102118.91;5093141;28;20215;-70
2023/04/19 03:03:32;;;;;;;13.73;11.17;;;;;;;10.19;72.11;102115.66;5075005;28;20652;-70
2023/04/19 03:05:59;;;;;;;14.80;12.03;;;;;;;10.18;71.85;102112.09;5091807;28;20213;-70
2023/04/19 03:08:26;;;;;;;13.90;12.47;;;;;;;10.20;71.55;102118.25;5075245;28;20190;-70
2023/04/19 03:10:53;;;;;;;11.83;11.13;;;;;;;10.20;71.20;102120.06;5075250;28;20190;-71
2023/04/19 03:13:20;;;;;;;11.97;10.97;;;;;;;10.11;71.46;102110.66;5093387;28;20265;-70
2023/04/19 03:15:47;;;;;;;13.03;12.00;;;;;;;10.13;71.31;102106.09;5074996;28;20300;-70
2023/04/19 03:18:16;;;;;;;12.47;11.40;;;;;;;10.17;70.68;102107.66;5091639;28;20286;-71
2023/04/19 03:20:42;;;;;;;11.63;10.67;;;;;;;10.15;69.93;102108.69;5074878;28;20198;-70
2023/04/19 03:23:09;;;;;;;12.73;10.73;;;;;;;10.11;69.70;102105.31;5075401;28;20281;-71
2023/04/19 03:25:36;;;;;;;10.53;9.60;;;;;;;9.99;69.26;102103.22;5092931;28;20202;-70
2023/04/19 03:28:25;;;;;;;10.13;9.50;;;;;;;9.99;67.90;102103.22;5082899;28;20216;-70
2023/04/19 03:31:15;;;;;;;9.00;8.60;;;;;;;10.01;67.93;102096.84;5078597;28;20543;-70
2023/04/19 03:33:43;;;;;;;9.80;9.20;;;;;;;9.99;67.46;102103.22;5079403;28;20197;-70
2023/04/19 03:36:11;;;;;;;9.63;9.03;;;;;;;9.99;67.64;102096.06;5078423;28;20220;-70
2023/04/19 03:38:40;;;;;;;8.87;8.57;;;;;;;9.99;66.90;102093.38;5078448;28;20220;-70
2023/04/19 03:41:18;;;;;;;9.23;8.73;;;;;;;9.96;66.39;102097.97;5078706;28;20706;-69
2023/04/19 03:43:46;;;;;;;8.50;8.20;;;;;;;10.02;66.26;102095.03;5078874;28;20200;-69
2023/04/19 03:46:12;;;;;;;8.80;8.53;;;;;;;9.97;65.46;102094.38;5096327;28;20206;-69
2023/04/19 03:48:39;;;;;;;8.83;8.43;;;;;;;9.86;65.21;102081.50;5095400;28;20186;-69
2023/04/19 03:51:06;;;;;;;8.70;8.23;;;;;;;9.83;65.21;102091.50;5096362;28;20652;-69
2023/04/19 03:53:33;;;;;;;8.00;7.50;;;;;;;9.76;65.15;102093.56;5078941;28;20190;-69
2023/04/19 03:55:59;;;;;;;9.17;8.77;;;;;;;9.77;64.75;102093.53;5096250;28;20233;-70
2023/04/19 03:58:26;;;;;;;7.97;7.60;;;;;;;9.72;64.75;102095.53;5078574;28;20616;-70
2023/04/19 04:01:00;;;;;;;9.17;8.77;;;;;;;9.54;64.86;102091.88;5078637;28;20614;-70
2023/04/19 04:03:26;;;;;;;8.67;7.97;;;;;;;9.53;64.81;102094.66;5078006;28;20190;-70
2023/04/19 04:05:53;;;;;;;9.33;8.90;;;;;;;9.56;64.68;102097.19;5096258;28;20205;-70
2023/04/19 04:08:19;;;;;;;9.17;8.67;;;;;;;9.53;65.24;102097.31;5096090;28;20213;-70
2023/04/19 04:10:46;;;;;;;8.53;8.13;;;;;;;9.43;65.97;102101.31;5077821;28;20246;-69
2023/04/19 04:13:13;;;;;;;8.60;8.17;;;;;;;9.39;66.80;102099.75;5078090;28;20194;-70
2023/04/19 04:15:47;;;;;;;9.43;8.90;;;;;;;9.34;67.48;102099.97;5078234;28;20240;-70
2023/04/19 04:18:16;;;;;;;9.87;9.27;;;;;;;9.30;67.80;102099.22;5077653;28;20209;-70
2023/04/19 04:20:43;;;;;;;9.23;8.93;;;;;;;9.27;67.97;102095.81;5077623;28;20186;-70
2023/04/19 04:23:10;;;;;;;9.67;9.07;;;;;;;9.21;68.43;102106.75;5077565;28;20615;-70
2023/04/19 04:25:41;;;;;;;9.60;8.93;;;;;;;9.18;68.28;102107.78;5077685;28;20270;-70
2023/04/19 04:28:11;;;;;;;9.83;9.27;;;;;;;9.25;68.31;102100.34;5077596;28;20200;-70
2023/04/19 04:30:39;;;;;;;9.07;8.73;;;;;;;9.19;68.14;102104.16;5077441;28;20717;-70
2023/04/19 04:33:07;;;;;;;10.63;10.00;;;;;;;9.13;68.84;102107.97;5078055;28;20182;-71
2023/04/19 04:35:34;;;;;;;10.73;9.93;;;;;;;9.20;68.36;102107.72;5077369;28;20305;-71
2023/04/19 04:38:07;;;;;;;9.50;9.00;;;;;;;9.13;68.42;102101.75;5076930;28;20209;-71
2023/04/19 04:40:52;;;;;;;8.77;8.17;;;;;;;9.06;68.65;102101.16;5077289;28;20190;-70
2023/04/19 04:43:20;;;;;;;9.23;8.77;;;;;;;9.01;68.63;102103.16;5077163;28;20293;-70
2023/04/19 04:45:47;;;;;;;10.23;9.33;;;;;;;8.96;68.37;102109.66;5077393;28;20216;-70
2023/04/19 04:48:14;;;;;;;10.27;9.57;;;;;;;8.91;68.43;102104.50;5077337;28;20656;-70
2023/04/19 04:50:41;;;;;;;9.83;8.93;;;;;;;8.81;68.54;102104.03;5095260;28;20214;-70
2023/04/19 04:53:07;;;;;;;10.10;9.33;;;;;;;8.81;68.18;102105.78;5093881;28;20197;-71
2023/04/19 04:55:35;;;;;;;11.50;10.47;;;;;;;8.71;68.61;102094.63;5077179;28;20210;-70
2023/04/19 04:58:03;;;;;;;11.27;10.47;;;;;;;8.64;68.81;102098.50;5077199;28;20205;-71
2023/04/19 05:00:48;;;;;;;9.97;9.43;;;;;;;8.59;68.20;102109.38;5078021;28;20188;-71
2023/04/19 05:03:15;;;;;;;10.90;10.17;;;;;;;8.57;67.94;102105.91;5076791;28;20194;-70
2023/04/19 05:05:47;;;;;;;10.60;9.77;;;;;;;8.55;67.47;102110.44;5077426;28;20623;-69
2023/04/19 05:08:15;;;;;;;10.37;9.37;;;;;;;8.58;67.36;102112.13;5076756;28;20197;-70
2023/04/19 05:10:42;;;;;;;11.63;10.43;;;;;;;8.55;65.80;102106.88;5076674;28;20679;-70
2023/04/19 05:13:10;;;;;;;10.97;10.23;;;;;;;8.51;66.06;102111.50;5076914;28;20190;-70
2023/04/19 05:15:38;;;;;;;11.33;10.53;;;;;;;8.54;65.68;102107.81;5093435;28;20559;-70
2023/04/19 05:18:05;;;;;;;10.93;10.10;;;;;;;8.44;64.11;102113.53;5076436;28;20603;-70
2023/04/19 05:20:32;;;;;;;10.90;10.10;;;;;;;8.41;63.45;102111.00;5094907;28;20189;-69
2023/04/19 05:23:06;;;;;;;10.17;9.47;;;;;;;8.40;62.23;102109.25;5076530;28;20239;-70
2023/04/19 05:25:33;;;;;;;12.03;10.67;;;;;;;8.42;61.36;102126.06;5076586;28;20255;-69
2023/04/19 05:28:00;;;;;;;11.37;10.53;;;;;;;8.45;60.79;102119.72;5076524;28;20201;-70
2023/04/19 05:30:32;;;;;;;11.03;9.87;;;;;;;8.37;60.39;102117.34;5076603;28;20690;-69
2023/04/19 05:32:59;;;;;;;10.67;9.97;;;;;;;8.42;60.32;102118.06;5076251;28;20286;-71
2023/04/19 05:35:26;;;;;;;11.23;10.13;;;;;;;8.45;59.40;102119.72;5076011;28;20209;-70
2023/04/19 05:37:53;;;;;;;10.37;9.67;;;;;;;8.51;57.84;102119.50;5076552;28;20305;-68
2023/04/19 05:40:19;;;;;;;11.03;9.83;;;;;;;8.55;56.57;102122.91;5076097;28;20273;-69
2023/04/19 05:42:46;;;;;;;9.50;8.90;;;;;;;8.47;56.51;102118.75;5094184;28;20270;-70
2023/04/19 05:45:14;;;;;;;10.00;9.33;;;;;;;8.51;56.28;102114.16;5075938;28;20213;-69
2023/04/19 05:47:41;;;;;;;9.67;9.03;;;;;;;8.57;56.27;102116.59;5094091;28;20174;-70
2023/04/19 05:50:32;;;;;;;9.53;8.63;;;;;;;8.61;54.93;102120.00;5075124;28;20209;-70
2023/04/19 05:53:18;;;;;;;9.63;9.00;;;;;;;8.52;54.22;102115.88;5076598;28;20242;-69
2023/04/19 05:55:46;;;;;;;10.03;9.43;;;;;;;8.60;54.17;102120.94;5075947;28;20240;-70
2023/04/19 05:58:13;;;;;;;10.13;9.07;;;;;;;8.59;53.90;102120.03;5075841;28;20214;-70
2023/04/19 06:00:40;;;;;;;10.13;9.33;;;;;;;8.60;53.89;102119.13;5094406;28;20683;-69
2023/04/19 06:03:10;;;;;;;8.83;8.40;;;;;;;8.48;53.85;102119.63;5075636;28;20185;-70
2023/04/19 06:05:39;;;;;;;10.10;9.37;;;;;;;8.57;54.17;102127.28;5094020;28;20233;-69
2023/04/19 06:08:06;;;;;;;9.57;8.77;;;;;;;8.69;53.77;102132.09;5075569;28;20190;-69
2023/04/19 06:10:32;;;;;;;9.20;8.60;;;;;;;8.86;53.35;102119.81;5093907;28;20220;-69
2023/04/19 06:13:18;;;;;;;12.17;8.90;;;;;;;9.04;53.41;102115.53;5093661;28;20180;-70
2023/04/19 06:15:46;;;;;;;8.60;8.10;;;;;;;9.14;52.10;102122.19;5075673;28;20224;-69
2023/04/19 06:18:12;;;;;;;12.10;8.93;;;;;;;9.20;51.73;102116.59;5093467;28;20202;-70
2023/04/19 06:20:45;;;;;;;9.23;8.33;;;;;;;8.97;52.43;102125.59;5093926;28;20235;-69
2023/04/19 06:23:13;;;;;;;9.13;8.43;;;;;;;8.91;52.28;102123.19;5093816;28;20212;-70
2023/04/19 06:25:40;;;;;;;8.77;8.10;;;;;;;8.77;52.97;102129.13;5093459;28;20213;-70
2023/04/19 06:28:06;;;;;;;12.13;7.97;;;;;;;8.69;53.68;102131.22;5093404;28;20594;-70
2023/04/19 06:30:32;;;;;;;8.53;7.87;;;;;;;8.87;52.63;102133.13;5093497;28;20189;-70
2023/04/19 06:32:59;;;;;;;8.13;7.77;;;;;;;8.83;51.81;102123.50;5093695;28;20618;-69
2023/04/19 06:35:25;;;;;;;7.90;7.27;;;;;;;8.94;51.13;102131.94;5093293;28;20263;-69
2023/04/19 06:37:51;;;;;;;8.83;7.90;;;;;;;8.90;50.75;102124.97;5093216;28;20784;-69
2023/04/19 06:40:18;;;;;;;8.70;8.00;;;;;;;9.05;51.13;102128.81;5093277;28;20192;-68
2023/04/19 06:42:44;;;;;;;7.50;7.10;;;;;;;9.15;50.84;102131.97;5093371;28;20274;-70
2023/04/19 06:45:11;;;;;;;8.07;7.30;;;;;;;9.17;50.06;102122.09;5093243;28;20577;-69
2023/04/19 06:47:37;;;;;;;9.63;7.93;;;;;;;9.17;49.79;102116.75;5093561;28;20232;-70
2023/04/19 06:50:05;;;;;;;7.17;6.97;;;;;;;9.15;51.17;102129.28;5093493;28;20524;-69
2023/04/19 06:52:31;;;;;;;7.77;7.20;;;;;;;9.23;50.26;102123.59;5093246;28;20273;-69
2023/04/19 06:54:57;;;;;;;8.03;7.63;;;;;;;9.20;50.68;102126.44;5093078;28;20205;-69
2023/04/19 06:57:24;;;;;;;8.07;7.60;;;;;;;9.39;50.34;102119.34;5093376;28;20260;-70
2023/04/19 06:59:53;;;;;;;7.33;6.97;;;;;;;9.58;49.24;102111.34;5093368;28;20209;-70
2023/04/19 07:02:20;;;;;;;7.97;7.37;;;;;;;9.59;49.72;102121.97;5096903;28;20181;-70
2023/04/19 07:04:46;;;;;;;7.93;7.23;;;;;;;9.69;48.78;102125.09;5097172;28;20201;-70
2023/04/19 07:07:13;;;;;;;9.00;8.47;;;;;;;9.68;48.38;102118.00;5097425;28;20189;-69
2023/04/19 07:09:39;;;;;;;7.43;7.13;;;;;;;9.66;47.99;102116.34;5097109;28;20185;-69
2023/04/19 07:12:06;;;;;;;7.17;6.97;;;;;;;9.68;48.10;102114.47;5097347;28;20178;-70
2023/04/19 07:14:32;;;;;;;7.50;7.20;;;;;;;9.79;49.04;102121.06;5096974;28;20281;-70
2023/04/19 07:16:59;;;;;;;7.13;6.87;;;;;;;9.92;48.94;102125.84;5097297;28;20189;-70
2023/04/19 07:19:27;;;;;;;8.13;7.50;;;;;;;9.90;47.79;102127.72;5096838;28;20299;-69
2023/04/19 07:21:54;;;;;;;7.93;7.37;;;;;;;9.84;47.45;102123.53;5097184;28;20189;-70
2023/04/19 07:24:20;;;;;;;7.97;7.23;;;;;;;9.79;47.45;102123.75;5096803;28;20591;-69
2023/04/19 07:26:47;;;;;;;8.13;7.50;;;;;;;9.97;47.33;102121.16;5096700;28;20329;-70
2023/04/19 07:29:13;;;;;;;7.67;7.27;;;;;;;10.04;47.37;102125.28;5097361;28;20258;-70
2023/04/19 07:31:40;;;;;;;7.47;7.13;;;;;;;10.19;47.52;102112.97;5096657;28;20271;-70
2023/04/19 07:34:07;;;;;;;9.57;6.37;;;;;;;10.31;46.33;102131.16;5096889;28;20220;-70
2023/04/19 07:36:35;;;;;;;7.53;7.30;;;;;;;10.28;45.86;102123.28;5096673;28;20760;-69
2023/04/19 07:39:03;;;;;;;6.40;6.10;;;;;;;10.26;46.70;102125.13;5096731;28;20672;-70
2023/04/19 07:41:31;;;;;;;5.73;5.57;;;;;;;10.38;47.91;102129.91;5096950;28;20213;-69
2023/04/19 07:43:57;;;;;;;6.47;6.27;;;;;;;10.34;45.50;102130.13;5096796;28;20621;-70
2023/04/19 07:46:24;;;;;;;7.27;6.60;;;;;;;10.23;45.47;102123.47;5096655;28;20206;-69
2023/04/19 07:48:50;;;;;;;5.90;5.67;;;;;;;10.34;47.74;102124.78;5096634;28;20694;-70
2023/04/19 07:51:18;;;;;;;5.77;5.57;;;;;;;10.20;45.68;102126.28;5096655;28;20193;-69
2023/04/19 07:53:46;;;;;;;6.93;6.47;;;;;;;10.32;45.89;102126.66;5096569;28;20194;-69
2023/04/19 07:56:13;;;;;;;7.33;6.93;;;;;;;10.25;46.23;102125.19;5096218;28;20647;-69
2023/04/19 07:58:40;;;;;;;6.03;5.73;;;;;;;10.39;46.85;102122.75;5096713;28;20206;-69
2023/04/19 08:01:06;;;;;;;6.63;6.33;;;;;;;10.43;45.89;102124.34;5096425;28;20194;-70
2023/04/19 08:03:34;;;;;;;5.47;5.20;;;;;;;10.54;46.08;102126.50;5096052;28;20198;-70
2023/04/19 08:06:02;;;;;;;5.47;5.30;;;;;;;10.64;44.56;102125.09;5095976;28;20580;-69
2023/04/19 08:08:28;;;;;;;6.47;6.23;;;;;;;10.66;46.07;102125.91;5096022;28;20223;-69
2023/04/19 08:10:54;;;;;;;6.23;6.03;;;;;;;10.70;45.06;102127.47;5096027;28;20553;-69
2023/04/19 08:13:21;;;;;;;7.10;6.80;;;;;;;10.63;43.94;102120.66;5095307;28;20272;-70
2023/04/19 08:15:48;;;;;;;5.93;5.83;;;;;;;10.66;43.88;102130.41;5095838;28;20630;-70
2023/04/19 08:18:17;;;;;;;7.03;6.73;;;;;;;10.65;44.22;102126.81;5095751;28;20222;-70
2023/04/19 08:20:47;;;;;;;5.70;5.50;;;;;;;10.82;43.90;102116.16;5095764;28;20204;-70
2023/04/19 08:23:14;;;;;;;6.00;5.90;;;;;;;10.68;44.61;102129.38;5095792;28;20182;-70
2023/04/19 08:25:53;;;;;;;12.67;5.70;;;;;;;10.83;44.78;102128.59;5095850;28;20614;-69
2023/04/19 08:28:19;;;;;;;5.23;5.10;;;;;;;10.76;45.01;102132.53;5095793;28;20261;-70
2023/04/19 08:30:45;;;;;;;5.50;5.40;;;;;;;10.76;43.84;102131.66;5096166;28;20228;-70
2023/04/19 08:33:12;;;;;;;6.10;5.30;;;;;;;10.82;44.46;102124.19;5096160;28;20648;-70
2023/04/19 08:35:40;;;;;;;5.83;5.60;;;;;;;11.02;44.70;102130.34;5095493;28;20296;-71
2023/04/19 08:38:07;;;;;;;7.37;4.93;;;;;;;11.05;44.66;102124.81;5095418;28;20208;-70
2023/04/19 08:40:34;;;;;;;13.70;5.27;;;;;;;11.17;44.44;102126.88;5095699;28;20186;-71
2023/04/19 08:43:05;;;;;;;5.77;4.97;;;;;;;10.93;42.36;102128.13;5095897;28;20220;-69
2023/04/19 08:45:32;;;;;;;4.63;4.63;;;;;;;10.82;42.24;102129.56;5113166;28;20206;-70
2023/04/19 08:48:00;;;;;;;10.43;5.20;;;;;;;10.74;42.75;102134.41;5115643;28;20216;-70
2023/04/19 08:50:29;;;;;;;5.03;4.70;;;;;;;10.82;42.74;102132.22;5115147;28;20194;-69
2023/04/19 08:53:07;;;;;;;5.07;4.97;;;;;;;10.93;43.41;102115.59;5108631;28;20181;-70
2023/04/19 08:55:53;;;;;;;4.40;4.30;;;;;;;11.17;43.22;102123.31;5099142;28;20634;-69
2023/04/19 08:58:22;;;;;;;4.77;4.47;;;;;;;11.27;42.18;102108.47;5102301;28;20597;-70
2023/04/19 09:01:07;;;;;;;4.47;4.47;;;;;;;11.36;43.12;102118.72;5097783;28;20185;-71
2023/04/19 09:03:46;;;;;;;4.87;4.53;;;;;;;11.41;41.88;102108.63;5096009;28;20200;-69
2023/04/19 09:06:39;;;;;;;5.77;5.43;;;;;;;11.45;41.52;102118.25;5095450;28;20174;-70
2023/04/19 09:09:16;;;;;;;4.57;4.43;;;;;;;11.23;42.08;102112.28;5095167;28;20171;-70
2023/04/19 09:11:46;;;;;;;4.97;4.87;;;;;;;11.43;40.83;102109.41;5095060;28;20200;-70
2023/04/19 09:14:15;;;;;;;5.23;4.93;;;;;;;11.43;42.17;102116.59;5094970;28;20578;-70
2023/04/19 09:16:42;;;;;;;5.10;4.67;;;;;;;11.47;41.61;102104.75;5094795;28;20620;-69
2023/04/19 09:19:15;;;;;;;4.77;4.67;;;;;;;11.63;40.17;102104.78;5094904;28;20216;-69
2023/04/19 09:21:52;;;;;;;4.40;4.30;;;;;;;11.54;40.74;102113.31;5095181;28;20231;-69
2023/04/19 09:24:36;;;;;;;5.23;4.73;;;;;;;11.49;41.49;102106.41;5094801;28;20537;-70
2023/04/19 09:27:31;;;;;;;4.70;4.60;;;;;;;11.66;40.93;102094.78;5094818;28;20209;-70
2023/04/19 09:30:00;;;;;;;5.20;4.80;;;;;;;11.67;38.73;102103.69;5095342;28;20568;-69
2023/04/19 09:32:27;;;;;;;7.40;3.80;;;;;;;11.72;40.01;102098.91;5094586;28;20225;-70
2023/04/19 09:34:56;;;;;;;5.00;4.90;;;;;;;11.81;39.48;102101.09;5094323;28;20622;-70
2023/04/19 09:37:24;;;;;;;5.13;4.70;;;;;;;11.98;40.28;102093.97;5094296;28;20268;-70
2023/04/19 09:40:26;;;;;;;8.87;4.70;;;;;;;12.14;37.97;102105.59;5094226;28;20209;-70
2023/04/19 09:42:53;;;;;;;4.63;4.33;;;;;;;11.90;37.96;102108.69;5094522;28;20174;-70
2023/04/19 09:45:45;;;;;;;4.73;4.20;;;;;;;11.58;37.25;102102.34;5094658;28;20220;-69
2023/04/19 09:48:12;;;;;;;5.17;4.77;;;;;;;11.48;39.00;102093.06;5094472;28;20212;-69
2023/04/19 09:50:58;;;;;;;4.97;4.03;;;;;;;11.66;39.37;102100.13;5094195;28;20189;-70
2023/04/19 09:53:34;;;;;;;5.83;5.67;;;;;;;11.62;39.39;102095.88;5094624;28;20193;-70
2023/04/19 09:56:01;;;;;;;4.50;4.40;;;;;;;11.74;39.09;102088.97;5094045;28;20210;-70
2023/04/19 09:58:29;;;;;;;4.50;4.40;;;;;;;11.51;38.60;102090.22;5094120;28;20197;-70
2023/04/19 10:01:15;;;;;;;6.13;5.60;;;;;;;11.40;39.35;102082.75;5075707;28;20185;-69
2023/04/19 10:03:48;;;;;;;4.97;4.87;;;;;;;11.34;39.89;102092.94;5093899;28;20549;-69
2023/04/19 10:06:18;;;;;;;5.00;4.60;;;;;;;11.26;39.01;102083.47;5094084;28;20617;-69
2023/04/19 10:08:49;;;;;;;5.70;5.60;;;;;;;11.16;39.41;102073.34;5094103;28;20206;-70
2023/04/19 10:11:19;;;;;;;5.60;5.27;;;;;;;11.54;40.51;102075.75;5093775;28;20178;-70
2023/04/19 10:13:47;;;;;;;4.43;4.33;;;;;;;11.80;38.20;102077.03;5093647;28;20190;-70
2023/04/19 10:16:15;;;;;;;5.10;4.90;;;;;;;11.84;38.06;102078.59;5092382;28;20305;-70
2023/04/19 10:18:48;;;;;;;8.87;5.27;;;;;;;11.98;40.14;102070.66;5093942;28;20204;-70
2023/04/19 10:21:15;;;;;;;4.43;4.43;;;;;;;11.85;40.23;102072.25;5093989;28;20186;-70
2023/04/19 10:23:42;;;;;;;4.30;4.30;;;;;;;12.08;38.96;102068.34;5094129;28;20188;-70
2023/04/19 10:26:08;;;;;;;5.27;4.80;;;;;;;12.11;40.73;102071.72;5093420;28;20210;-70
2023/04/19 10:28:35;;;;;;;4.87;4.77;;;;;;;12.03;38.75;102068.59;5093323;28;20210;-70
2023/04/19 10:31:03;;;;;;;5.90;4.67;;;;;;;11.94;38.35;102063.72;5093485;28;20277;-69
2023/04/19 10:33:34;;;;;;;5.67;5.47;;;;;;;12.01;39.49;102054.38;5093321;28;20239;-70
2023/04/19 10:36:01;;;;;;;4.83;4.63;;;;;;;11.99;38.48;102052.75;5093248;28;20243;-69
2023/04/19 10:38:36;;;;;;;4.93;4.87;;;;;;;12.15;39.85;102052.75;5093323;28;20204;-69
2023/04/19 10:41:03;;;;;;;4.60;4.37;;;;;;;12.17;37.17;102045.47;5093683;28;20228;-69
2023/04/19 10:43:33;;;;;;;4.20;4.20;;;;;;;12.24;37.51;102050.41;5093548;28;20717;-70
2023/04/19 10:46:08;;;;;;;5.00;4.80;;;;;;;12.45;36.91;102047.41;5093500;28;20300;-70
2023/04/19 10:48:37;;;;;;;5.47;5.27;;;;;;;12.56;37.24;102050.34;5093556;28;20162;-71
2023/04/19 10:51:13;;;;;;;4.37;4.17;;;;;;;12.74;35.38;102053.78;5075197;28;20202;-71
2023/04/19 10:54:00;;;;;;;4.83;4.70;;;;;;;12.77;36.46;102054.44;5093325;28;20169;-71
2023/04/19 10:56:32;;;;;;;4.70;4.40;;;;;;;12.76;36.56;102046.44;5093823;28;20220;-70
2023/04/19 10:58:59;;;;;;;4.97;4.50;;;;;;;12.75;35.09;102040.22;5093215;28;20197;-71
2023/04/19 11:01:59;;;;;;;4.73;4.53;;;;;;;12.89;37.94;102028.63;5093192;28;20281;-71
2023/04/19 11:04:29;;;;;;;5.03;4.57;;;;;;;13.24;35.39;102028.31;5049979;28;20226;-71
2023/04/19 11:07:04;;;;;;;4.87;4.87;;;;;;;13.35;34.61;102016.91;5093445;28;20210;-71
2023/04/19 11:09:34;;;;;;;5.07;4.97;;;;;;;13.19;33.98;102020.53;5093222;28;20197;-71
2023/04/19 11:12:03;;;;;;;4.37;4.27;;;;;;;13.26;34.30;102025.50;5093407;28;20231;-72
2023/04/19 11:14:36;;;;;;;7.40;5.00;;;;;;;13.12;36.24;102010.22;5093002;28;20210;-71
2023/04/19 11:17:14;;;;;;;4.93;4.70;;;;;;;13.08;35.22;102011.38;5093371;28;20198;-71
2023/04/19 11:20:10;;;;;;;6.27;4.60;;;;;;;12.87;33.97;102006.34;5093483;28;20285;-70
2023/04/19 11:22:38;;;;;;;4.83;4.83;;;;;;;12.97;35.35;102003.97;5086476;28;20202;-71
2023/04/19 11:25:18;;;;;;;5.43;5.33;;;;;;;12.99;34.81;101992.16;5092819;28;20667;-71
2023/04/19 11:27:46;;;;;;;4.73;4.53;;;;;;;13.24;35.23;102000.50;5092978;28;20206;-71
2023/04/19 11:30:18;;;;;;;4.80;4.80;;;;;;;13.47;34.00;101989.19;5092897;28;20221;-71
2023/04/19 11:32:47;;;;;;;12.33;4.87;;;;;;;13.61;31.97;102004.47;5093173;28;20189;-70